Time;durP1;ratioP1;P1;durP2;ratioP2;P2;SDS_P1;SDS_P2;PMS_P1;PMS_P2;Temp;Humidity;BMP_temperature;BMP_pressure;BME280_temperature;BME280_humidity;BME280_pressure;Samples;Min_cycle;Max_cycle;Signal;HPM_P1;HPM_P2
2022/03/18 00:00:34;;;;;;;19.77;11.37;;;2.90;99.90;;;;;;5056354;28;20299;-90
2022/03/18 00:03:12;;;;;;;23.57;11.27;;;2.80;99.90;;;;;;5059099;28;20210;-90
2022/03/18 00:05:48;;;;;;;21.70;10.53;;;2.80;99.90;;;;;;5048873;28;20223;-90
2022/03/18 00:08:18;;;;;;;26.67;11.50;;;2.70;99.90;;;;;;5055743;28;20679;-90
2022/03/18 00:11:05;;;;;;;21.13;9.30;;;2.70;99.90;;;;;;5055767;28;20342;-90
2022/03/18 00:13:33;;;;;;;17.63;9.13;;;2.60;99.90;;;;;;5055634;28;20615;-90
2022/03/18 00:16:25;;;;;;;16.67;8.93;;;2.60;99.90;;;;;;5053712;28;20610;-91
2022/03/18 00:19:01;;;;;;;15.53;7.20;;;2.60;99.90;;;;;;5079958;28;20192;-91
2022/03/18 00:21:36;;;;;;;17.33;7.87;;;2.60;99.90;;;;;;5055283;28;20268;-91
2022/03/18 00:24:32;;;;;;;16.73;5.97;;;2.50;99.90;;;;;;5070094;28;20233;-91
2022/03/18 00:27:05;;;;;;;12.67;6.33;;;2.50;99.90;;;;;;5035310;28;20239;-92
2022/03/18 00:29:36;;;;;;;13.27;5.37;;;2.50;99.90;;;;;;5047059;28;20205;-91
2022/03/18 00:32:07;;;;;;;13.33;5.50;;;2.40;99.90;;;;;;5051631;28;20238;-91
2022/03/18 00:34:52;;;;;;;13.50;5.30;;;2.30;99.90;;;;;;5052896;28;20211;-91
2022/03/18 00:37:20;;;;;;;11.03;5.27;;;2.40;99.90;;;;;;5064880;28;20204;-88
2022/03/18 00:40:19;;;;;;;12.67;4.83;;;2.30;99.90;;;;;;5055391;28;20197;-92
2022/03/18 00:43:03;;;;;;;9.77;5.00;;;2.20;99.90;;;;;;5066001;28;20221;-93
2022/03/18 00:45:42;;;;;;;11.47;4.73;;;2.20;99.90;;;;;;5072391;28;20219;-91
2022/03/18 00:54:08;;;;;;;9.77;3.70;;;2.00;99.90;;;;;;5075516;28;20212;-92
2022/03/18 00:56:51;;;;;;;16.27;3.80;;;2.00;99.90;;;;;;5058612;28;20287;-90
2022/03/18 00:59:23;;;;;;;11.47;3.70;;;1.90;99.90;;;;;;5082573;28;20234;-91
2022/03/18 01:02:02;;;;;;;14.80;3.50;;;1.90;99.90;;;;;;5077068;28;20192;-92
2022/03/18 01:04:35;;;;;;;10.60;4.50;;;1.90;99.90;;;;;;5084993;28;20214;-90
2022/03/18 01:07:12;;;;;;;7.27;3.30;;;1.90;99.90;;;;;;5083676;28;20202;-90
2022/03/18 01:09:49;;;;;;;8.60;3.87;;;1.90;99.90;;;;;;5105796;28;20669;-91
2022/03/18 01:12:27;;;;;;;7.50;3.80;;;1.90;99.90;;;;;;5075262;28;20231;-92
2022/03/18 01:15:02;;;;;;;8.30;4.30;;;1.80;99.90;;;;;;5061871;28;20211;-90
2022/03/18 01:17:37;;;;;;;10.23;3.87;;;1.90;99.90;;;;;;5069040;28;20305;-90
2022/03/18 01:20:20;;;;;;;7.43;3.70;;;1.90;99.90;;;;;;5105286;28;20202;-91
2022/03/18 01:23:06;;;;;;;11.77;4.70;;;1.80;99.90;;;;;;5089015;28;20215;-91
2022/03/18 01:25:35;;;;;;;6.63;4.07;;;1.80;99.90;;;;;;5070326;28;20203;-91
2022/03/18 01:28:06;;;;;;;10.87;4.30;;;1.80;99.90;;;;;;5083798;28;20214;-90
2022/03/18 01:30:35;;;;;;;14.97;4.20;;;1.80;99.90;;;;;;5070855;28;20228;-90
2022/03/18 01:33:21;;;;;;;8.57;4.07;;;1.80;99.90;;;;;;5077488;28;20230;-91
2022/03/18 01:35:52;;;;;;;8.53;4.30;;;1.80;99.90;;;;;;5060797;28;20206;-91
2022/03/18 01:38:57;;;;;;;14.80;4.83;;;1.80;99.90;;;;;;5090906;28;20187;-91
2022/03/18 01:41:28;;;;;;;18.27;5.73;;;1.80;99.90;;;;;;5071170;28;20198;-91
2022/03/18 01:43:56;;;;;;;8.57;4.37;;;1.60;99.90;;;;;;5087970;28;20231;-91
2022/03/18 01:46:31;;;;;;;16.03;5.23;;;1.70;99.90;;;;;;5070433;28;20219;-90
2022/03/18 01:49:02;;;;;;;13.67;4.93;;;1.70;99.90;;;;;;5068613;28;20215;-91
2022/03/18 01:51:30;;;;;;;12.20;4.70;;;1.70;99.90;;;;;;5066959;28;20793;-90
2022/03/18 01:56:59;;;;;;;9.63;4.53;;;1.70;99.90;;;;;;5084603;28;20200;-90
2022/03/18 01:59:27;;;;;;;16.03;4.53;;;1.60;99.90;;;;;;5077195;28;20615;-90
2022/03/18 02:02:03;;;;;;;13.37;5.30;;;1.60;99.90;;;;;;5067042;28;20230;-90
2022/03/18 02:04:32;;;;;;;9.33;4.87;;;1.60;99.90;;;;;;5080275;28;20206;-91
2022/03/18 02:07:06;;;;;;;12.03;5.63;;;1.60;99.90;;;;;;5071937;28;20215;-91
2022/03/18 02:09:39;;;;;;;10.17;5.50;;;1.70;99.90;;;;;;5084193;28;20791;-89
2022/03/18 02:12:09;;;;;;;9.50;4.80;;;1.60;99.90;;;;;;5065661;28;20264;-90
2022/03/18 02:14:44;;;;;;;17.23;5.80;;;1.60;99.90;;;;;;5082960;28;20203;-90
2022/03/18 02:17:15;;;;;;;10.50;5.10;;;1.60;99.90;;;;;;5085983;28;20204;-90
2022/03/18 02:19:44;;;;;;;15.97;5.83;;;1.60;99.90;;;;;;5094883;28;20240;-90
2022/03/18 02:22:29;;;;;;;14.73;4.73;;;1.50;99.90;;;;;;5080806;28;20194;-90
2022/03/18 02:25:09;;;;;;;7.27;3.93;;;1.50;99.90;;;;;;5076398;28;20204;-91
2022/03/18 02:28:20;;;;;;;12.33;4.57;;;1.50;99.90;;;;;;5090809;28;20198;-89
2022/03/18 02:30:56;;;;;;;11.73;5.53;;;1.50;99.90;;;;;;5080288;28;20494;-88
2022/03/18 02:33:26;;;;;;;11.60;5.37;;;1.50;99.90;;;;;;5062891;28;20225;-90
2022/03/18 02:35:58;;;;;;;15.30;5.87;;;1.50;99.90;;;;;;5076449;28;20237;-91
2022/03/18 02:38:29;;;;;;;10.90;4.73;;;1.40;99.90;;;;;;5075450;28;20202;-90
2022/03/18 02:40:59;;;;;;;12.63;4.27;;;1.40;99.90;;;;;;5058847;28;20199;-91
2022/03/18 02:43:33;;;;;;;7.30;4.17;;;1.50;99.90;;;;;;5071790;28;20213;-91
2022/03/18 02:46:06;;;;;;;10.63;4.97;;;1.20;99.90;;;;;;5074132;28;20233;-91
2022/03/18 02:48:55;;;;;;;12.00;5.40;;;1.30;99.90;;;;;;5096156;28;20203;-91
2022/03/18 02:51:25;;;;;;;11.53;5.40;;;1.30;99.90;;;;;;5073924;28;20203;-89
2022/03/18 02:54:00;;;;;;;9.10;4.27;;;1.40;99.90;;;;;;5075901;28;20230;-90
2022/03/18 02:56:34;;;;;;;12.10;5.43;;;1.40;99.90;;;;;;5091111;28;20197;-92
2022/03/18 02:59:08;;;;;;;11.77;5.77;;;1.40;99.90;;;;;;5071410;28;20246;-93
2022/03/18 03:01:39;;;;;;;22.00;7.00;;;1.50;99.90;;;;;;5057295;28;20306;-91
2022/03/18 03:04:08;;;;;;;12.27;7.37;;;1.40;99.90;;;;;;5074409;28;20293;-91
2022/03/18 03:09:37;;;;;;;14.73;6.87;;;1.40;99.90;;;;;;5072088;28;20198;-91
2022/03/18 03:12:09;;;;;;;13.10;7.60;;;1.40;99.90;;;;;;5054884;28;20302;-90
2022/03/18 03:14:59;;;;;;;17.83;7.10;;;1.30;99.90;;;;;;5086880;28;20617;-90
2022/03/18 03:17:29;;;;;;;13.60;6.43;;;1.30;99.90;;;;;;5088909;28;20216;-91
2022/03/18 03:20:08;;;;;;;13.03;6.67;;;1.30;99.90;;;;;;5053630;28;20262;-89
2022/03/18 03:22:51;;;;;;;14.07;6.67;;;1.30;99.90;;;;;;5092006;28;20220;-92
2022/03/18 03:25:41;;;;;;;13.90;6.73;;;1.30;99.90;;;;;;5054545;28;20247;-91
2022/03/18 03:28:32;;;;;;;18.17;6.77;;;1.30;99.90;;;;;;5064190;28;20218;-91
2022/03/18 03:31:11;;;;;;;11.53;6.17;;;1.30;99.90;;;;;;5058777;28;20276;-91
2022/03/18 03:34:06;;;;;;;12.17;6.03;;;1.30;99.90;;;;;;5087550;28;20226;-92
2022/03/18 03:37:04;;;;;;;13.20;5.70;;;1.30;99.90;;;;;;4583406;27;15922088;-90
2022/03/18 03:40:29;;;;;;;13.70;5.43;;;1.20;99.90;;;;;;5115779;28;20196;-91
2022/03/18 03:43:05;;;;;;;9.43;4.87;;;1.20;99.90;;;;;;5114255;28;20321;-91
2022/03/18 03:45:54;;;;;;;10.77;5.13;;;1.20;99.90;;;;;;5116017;28;20278;-90
2022/03/18 03:48:33;;;;;;;10.23;4.23;;;1.20;99.90;;;;;;5112714;28;20261;-90
2022/03/18 03:51:20;;;;;;;10.00;4.47;;;1.20;99.90;;;;;;5121244;28;20203;-90
2022/03/18 03:54:29;;;;;;;9.40;5.10;;;1.20;99.90;;;;;;5120247;28;20756;-91
2022/03/18 03:57:10;;;;;;;7.93;4.90;;;1.20;99.90;;;;;;5122426;28;20211;-91
2022/03/18 03:59:43;;;;;;;9.80;4.50;;;1.30;99.90;;;;;;5123272;28;20223;-89
2022/03/18 04:02:43;;;;;;;11.20;4.80;;;1.20;99.90;;;;;;5123206;28;20222;-90
2022/03/18 04:05:24;;;;;;;13.23;4.60;;;1.10;99.90;;;;;;5132826;28;20215;-91
2022/03/18 04:08:03;;;;;;;13.23;4.40;;;1.10;99.90;;;;;;5136374;28;20209;-92
2022/03/18 04:10:34;;;;;;;12.30;4.37;;;1.10;99.90;;;;;;5130210;28;20217;-90
2022/03/18 04:13:18;;;;;;;10.30;5.00;;;1.10;99.90;;;;;;5111174;28;20209;-89
2022/03/18 04:15:48;;;;;;;13.57;6.20;;;1.10;99.90;;;;;;5109537;28;20241;-91
2022/03/18 04:18:23;;;;;;;12.50;5.77;;;1.10;99.90;;;;;;5113272;28;20205;-91
2022/03/18 04:21:14;;;;;;;15.47;5.80;;;1.10;99.90;;;;;;5111213;28;20284;-89
2022/03/18 04:23:45;;;;;;;16.27;5.93;;;1.10;99.90;;;;;;5106150;28;20199;-91
2022/03/18 04:26:32;;;;;;;15.63;6.43;;;1.10;99.90;;;;;;5099940;28;20222;-90
2022/03/18 04:29:27;;;;;;;15.17;6.77;;;1.10;99.90;;;;;;5103326;28;20212;-91
2022/03/18 04:32:02;;;;;;;12.10;7.27;;;1.10;99.90;;;;;;5112100;28;20203;-89
2022/03/18 04:34:43;;;;;;;14.10;6.73;;;1.10;99.90;;;;;;5107051;28;20746;-88
2022/03/18 04:37:16;;;;;;;13.90;6.33;;;1.10;99.90;;;;;;5103878;28;20248;-89
2022/03/18 04:39:58;;;;;;;11.93;5.93;;;1.10;99.90;;;;;;5106065;28;20701;-89
2022/03/18 04:42:35;;;;;;;16.67;5.80;;;1.10;99.90;;;;;;5112859;28;20230;-89
2022/03/18 04:45:11;;;;;;;10.20;6.37;;;1.00;99.90;;;;;;5115573;28;20212;-90
2022/03/18 04:48:09;;;;;;;8.37;5.87;;;1.00;99.90;;;;;;5114132;28;20222;-92
2022/03/18 04:50:58;;;;;;;;;;;;;;;;;;;;;
2022/03/18 04:54:38;;;;;;;11.63;6.13;;;0.90;99.90;;;;;;5090915;28;20291;-89
2022/03/18 04:57:31;;;;;;;12.63;6.10;;;0.90;99.90;;;;;;5074977;28;20201;-92
2022/03/18 05:00:17;;;;;;;12.57;6.57;;;0.90;99.90;;;;;;5097265;28;20235;-90
2022/03/18 05:02:46;;;;;;;13.13;6.47;;;0.90;99.90;;;;;;5101178;28;20209;-90
2022/03/18 05:05:20;;;;;;;11.47;6.00;;;0.80;99.90;;;;;;5107031;28;20532;-90
2022/03/18 05:07:58;;;;;;;13.70;6.20;;;0.80;99.90;;;;;;5114706;28;20274;-89
2022/03/18 05:11:19;;;;;;;8.50;5.43;;;0.80;99.90;;;;;;5115393;28;20226;-89
2022/03/18 05:13:58;;;;;;;13.10;5.90;;;0.80;99.90;;;;;;5101527;28;20222;-90
2022/03/18 05:16:49;;;;;;;14.93;5.73;;;0.80;99.90;;;;;;5112810;28;20224;-89
2022/03/18 05:19:37;;;;;;;12.80;5.90;;;0.80;99.90;;;;;;5098912;28;20259;-90
2022/03/18 05:26:16;;;;;;;10.83;6.07;;;0.80;99.90;;;;;;5090970;28;20246;-90
2022/03/18 05:32:36;;;;;;;;;;;;;;;;;;;;;
2022/03/18 05:35:59;;;;;;;8.70;6.40;;;0.70;99.90;;;;;;5087608;28;20917;-94
2022/03/18 05:38:41;;;;;;;13.77;7.30;;;0.80;99.90;;;;;;5095184;28;20222;-91
2022/03/18 05:41:43;;;;;;;10.70;6.37;;;0.60;99.90;;;;;;5095294;28;20220;-90
2022/03/18 05:44:15;;;;;;;13.57;6.43;;;0.70;99.90;;;;;;5097399;28;20227;-91
2022/03/18 05:47:41;;;;;;;;;;;;;;;;;;;;;
2022/03/18 05:50:23;;;;;;;11.17;6.00;;;0.80;99.90;;;;;;5101411;28;20296;-91
2022/03/18 05:52:59;;;;;;;16.83;5.90;;;0.80;99.90;;;;;;5081021;28;20203;-90
2022/03/18 05:58:21;;;;;;;13.97;7.30;;;0.70;99.90;;;;;;5091334;28;20207;-89
2022/03/18 06:00:53;;;;;;;15.33;5.83;;;0.80;99.90;;;;;;5082213;28;20225;-90
2022/03/18 06:03:29;;;;;;;12.30;5.70;;;0.90;99.90;;;;;;5086433;28;20199;-88
2022/03/18 06:06:06;;;;;;;12.67;5.80;;;0.80;99.90;;;;;;5093554;28;20291;-87
2022/03/18 06:12:09;;;;;;;12.27;5.77;;;0.90;99.90;;;;;;5089354;28;20211;-87
2022/03/18 06:14:45;;;;;;;12.97;5.97;;;0.90;99.90;;;;;;5084630;28;20226;-88
2022/03/18 06:17:28;;;;;;;11.60;6.37;;;1.00;99.90;;;;;;5084910;28;20235;-85
2022/03/18 06:19:58;;;;;;;16.93;6.83;;;1.10;99.90;;;;;;5084761;28;20229;-84
2022/03/18 06:22:30;;;;;;;11.23;6.00;;;1.10;99.90;;;;;;5087648;28;20210;-87
2022/03/18 06:25:02;;;;;;;14.43;7.47;;;1.10;99.90;;;;;;5081733;28;21267;-85
2022/03/18 06:27:33;;;;;;;14.67;6.83;;;1.10;99.90;;;;;;5080765;28;20214;-90
2022/03/18 06:30:07;;;;;;;10.60;5.60;;;1.20;99.90;;;;;;5085322;28;20842;-87
2022/03/18 06:32:35;;;;;;;16.63;6.07;;;1.20;99.90;;;;;;5089152;28;20268;-86
2022/03/18 06:35:07;;;;;;;14.20;6.27;;;1.30;99.90;;;;;;5094207;28;20193;-87
2022/03/18 06:37:35;;;;;;;14.37;7.17;;;1.30;99.90;;;;;;5082210;28;20653;-85
2022/03/18 06:40:13;;;;;;;12.73;7.03;;;1.40;99.90;;;;;;5097105;28;20213;-88
2022/03/18 06:42:56;;;;;;;13.43;7.03;;;1.50;99.90;;;;;;5082538;28;20201;-89
2022/03/18 06:45:48;;;;;;;14.10;6.27;;;1.50;99.90;;;;;;5092983;28;20217;-88
2022/03/18 06:52:06;;;;;;;14.53;6.63;;;1.70;99.90;;;;;;5107066;28;20210;-91
2022/03/18 06:54:50;;;;;;;15.17;7.10;;;1.80;99.90;;;;;;5089192;28;20198;-91
2022/03/18 06:57:49;;;;;;;11.40;6.97;;;1.90;99.90;;;;;;5088297;28;20226;-92
2022/03/18 07:01:09;;;;;;;21.33;9.93;;;1.90;99.90;;;;;;5086797;28;20254;-93
2022/03/18 07:04:38;;;;;;;;;;;;;;;;;;;;;
2022/03/18 07:07:48;;;;;;;;;;;;;;;;;;;;;
2022/03/18 07:10:34;;;;;;;14.10;5.70;;;5.70;99.90;;;;;;5034988;28;20221;-88
2022/03/18 07:13:18;;;;;;;14.60;5.40;;;7.10;99.90;;;;;;5021405;28;20221;-89
2022/03/18 07:15:45;;;;;;;13.07;5.87;;;8.20;99.90;;;;;;5012071;28;20241;-88
2022/03/18 07:18:30;;;;;;;12.70;5.77;;;9.30;99.90;;;;;;5034684;28;20595;-88
2022/03/18 07:21:34;;;;;;;10.50;5.33;;;10.20;99.90;;;;;;5037925;28;20203;-88
2022/03/18 07:24:04;;;;;;;8.30;4.70;;;12.00;99.90;;;;;;5089292;28;20203;-90
2022/03/18 07:26:38;;;;;;;12.53;5.37;;;12.00;99.90;;;;;;5073599;28;20209;-90
2022/03/18 07:29:21;;;;;;;8.13;4.77;;;13.30;99.90;;;;;;5092554;28;20227;-87
2022/03/18 07:32:00;;;;;;;8.10;5.73;;;13.30;99.90;;;;;;5090297;28;20605;-88
2022/03/18 07:34:31;;;;;;;15.13;5.10;;;14.00;99.90;;;;;;5092432;28;20199;-89
2022/03/18 07:37:03;;;;;;;10.57;5.50;;;14.40;99.90;;;;;;5103312;28;20242;-88
2022/03/18 07:39:32;;;;;;;8.57;4.90;;;14.90;99.90;;;;;;5099016;28;20314;-88
2022/03/18 07:42:06;;;;;;;13.43;5.03;;;15.10;99.90;;;;;;5099088;28;20200;-87
2022/03/18 07:44:58;;;;;;;11.98;5.22;;;15.30;99.90;;;;;;5101609;28;20275;-88
2022/03/18 07:47:38;;;;;;;12.95;4.90;;;15.70;99.90;;;;;;5113387;28;20199;-91
2022/03/18 07:50:21;;;;;;;11.00;4.38;;;15.60;99.90;;;;;;5110101;28;20572;-87
2022/03/18 07:52:58;;;;;;;9.63;4.50;;;15.80;99.90;;;;;;5086968;28;20200;-86
2022/03/18 07:55:45;;;;;;;9.25;4.50;;;16.00;99.90;;;;;;5086942;28;20709;-89
2022/03/18 07:58:13;;;;;;;9.88;4.20;;;16.20;99.90;;;;;;5091008;28;20234;-84
2022/03/18 08:00:55;;;;;;;8.43;4.38;;;16.30;99.90;;;;;;5094589;28;20601;-89
2022/03/18 08:03:26;;;;;;;11.02;4.22;;;16.50;99.90;;;;;;5087953;28;20235;-87
2022/03/18 08:06:16;;;;;;;8.80;4.50;;;16.70;99.90;;;;;;5090394;28;20664;-89
2022/03/18 08:09:33;;;;;;;8.02;4.22;;;16.90;99.90;;;;;;5102279;28;20494;-88
2022/03/18 08:12:03;;;;;;;13.20;4.40;;;16.90;99.90;;;;;;5108909;28;20229;-88
2022/03/18 08:14:37;;;;;;;12.80;4.70;;;16.90;99.90;;;;;;5126318;28;20195;-89
2022/03/18 08:17:09;;;;;;;12.05;4.35;;;17.10;99.90;;;;;;5106464;28;20220;-90
2022/03/18 08:22:39;;;;;;;11.10;4.47;;;17.30;99.90;;;;;;5115096;28;20203;-90
2022/03/18 08:25:21;;;;;;;9.27;4.63;;;17.40;99.90;;;;;;5112627;28;20215;-89
2022/03/18 08:28:10;;;;;;;12.00;4.40;;;17.50;99.60;;;;;;5110107;28;20243;-90
2022/03/18 08:30:57;;;;;;;9.75;4.70;;;17.50;99.10;;;;;;5113956;28;20227;-90
2022/03/18 08:33:36;;;;;;;8.32;4.53;;;17.70;98.80;;;;;;5008138;23;20293;-86
2022/03/18 08:36:03;;;;;;;10.75;5.05;;;17.80;98.20;;;;;;4989989;28;20235;-85
2022/03/18 08:38:30;;;;;;;12.23;5.50;;;17.80;97.80;;;;;;5002640;28;20718;-84
2022/03/18 08:40:57;;;;;;;11.30;4.05;;;17.80;97.30;;;;;;4986430;28;20287;-85
2022/03/18 08:43:24;;;;;;;8.70;3.88;;;17.80;97.10;;;;;;5005384;28;20325;-86
2022/03/18 08:45:52;;;;;;;11.52;4.68;;;17.80;96.80;;;;;;4990912;28;20319;-86
2022/03/18 08:48:19;;;;;;;7.18;3.33;;;17.90;96.80;;;;;;4997088;28;20204;-89
2022/03/18 08:50:47;;;;;;;8.90;3.58;;;17.80;96.40;;;;;;5001972;28;20249;-88
2022/03/18 08:53:13;;;;;;;12.38;4.25;;;17.90;96.20;;;;;;5021660;28;20191;-89
2022/03/18 08:55:40;;;;;;;6.65;2.58;;;17.90;95.90;;;;;;5025956;28;20251;-88
2022/03/18 08:58:08;;;;;;;7.47;3.13;;;17.90;95.20;;;;;;5005553;28;20294;-88
2022/03/18 09:00:35;;;;;;;6.65;2.90;;;17.90;94.70;;;;;;5011212;28;20219;-86
2022/03/18 09:03:02;;;;;;;5.10;2.92;;;17.80;94.40;;;;;;5008664;28;20655;-86
2022/03/18 09:05:30;;;;;;;5.20;2.92;;;17.80;94.40;;;;;;5006446;28;20451;-87
2022/03/18 09:07:59;;;;;;;5.60;2.65;;;17.70;93.70;;;;;;5009373;28;20214;-90
2022/03/18 09:10:26;;;;;;;7.45;2.80;;;17.10;92.50;;;;;;5008045;28;20203;-89
2022/03/18 09:12:58;;;;;;;5.63;2.58;;;16.70;93.20;;;;;;5010246;28;20238;-88
2022/03/18 09:15:30;;;;;;;6.85;2.80;;;16.70;94.10;;;;;;4995118;28;20215;-89
2022/03/18 09:17:57;;;;;;;8.13;3.30;;;16.40;94.10;;;;;;4990905;28;20227;-85
2022/03/18 09:20:25;;;;;;;6.75;2.95;;;16.30;94.60;;;;;;4990005;28;20370;-85
2022/03/18 09:22:52;;;;;;;8.20;3.33;;;16.40;95.20;;;;;;4993577;28;20219;-86
2022/03/18 09:25:20;;;;;;;9.27;3.22;;;16.50;95.10;;;;;;5009284;28;20294;-86
2022/03/18 09:27:47;;;;;;;10.02;3.25;;;16.20;94.70;;;;;;4988457;28;20611;-85
2022/03/18 09:30:16;;;;;;;13.52;3.35;;;16.00;95.30;;;;;;4988699;28;20226;-88
2022/03/18 09:32:43;;;;;;;8.85;3.53;;;16.00;95.80;;;;;;4990641;28;20317;-89
2022/03/18 09:35:11;;;;;;;9.35;4.07;;;16.00;96.00;;;;;;4990768;28;20242;-87
2022/03/18 09:37:38;;;;;;;7.50;3.78;;;15.80;96.20;;;;;;4990580;28;20282;-88
2022/03/18 09:40:08;;;;;;;7.32;3.75;;;15.70;96.40;;;;;;5000609;28;20226;-87
2022/03/18 09:43:06;;;;;;;10.32;3.92;;;15.40;96.90;;;;;;4985941;28;20207;-86
2022/03/18 09:45:38;;;;;;;11.88;4.38;;;15.40;98.00;;;;;;4990718;28;20632;-88
2022/03/18 09:48:07;;;;;;;10.60;4.18;;;15.30;98.30;;;;;;4991354;28;20485;-86
2022/03/18 09:50:34;;;;;;;10.23;4.18;;;15.40;98.50;;;;;;5003445;28;20301;-87
2022/03/18 09:53:01;;;;;;;9.20;3.73;;;15.40;99.00;;;;;;4986264;28;20290;-87
2022/03/18 09:55:30;;;;;;;10.05;4.22;;;15.40;99.30;;;;;;4987562;28;20235;-82
2022/03/18 09:57:57;;;;;;;9.70;4.07;;;15.40;99.60;;;;;;4988086;28;20238;-88
2022/03/18 10:00:28;;;;;;;10.57;4.87;;;15.30;99.70;;;;;;4982767;28;20215;-85
2022/03/18 10:03:08;;;;;;;10.30;4.10;;;15.20;99.90;;;;;;5001836;28;20295;-88
2022/03/18 10:05:59;;;;;;;8.47;4.50;;;15.40;99.90;;;;;;4985460;28;20211;-87
2022/03/18 10:08:35;;;;;;;9.37;4.80;;;15.60;99.90;;;;;;5006273;28;20200;-85
2022/03/18 10:11:16;;;;;;;12.23;5.03;;;15.60;99.90;;;;;;4999593;28;20717;-85
2022/03/18 10:14:03;;;;;;;11.77;4.80;;;15.50;99.90;;;;;;4988202;28;20611;-86
2022/03/18 10:16:38;;;;;;;11.93;4.73;;;15.50;99.90;;;;;;5003721;28;20238;-84
2022/03/18 10:19:21;;;;;;;11.43;5.43;;;15.20;99.90;;;;;;4986778;28;20740;-86
2022/03/18 10:22:02;;;;;;;13.77;5.47;;;15.20;99.90;;;;;;5005494;28;20690;-88
2022/03/18 10:24:35;;;;;;;13.43;5.30;;;15.20;99.90;;;;;;4988306;28;20234;-87
2022/03/18 10:27:21;;;;;;;9.17;4.83;;;15.20;99.90;;;;;;4988198;28;20338;-85
2022/03/18 10:29:53;;;;;;;11.47;5.20;;;15.00;99.90;;;;;;4988535;28;20294;-87
2022/03/18 10:32:22;;;;;;;8.60;5.30;;;14.70;99.90;;;;;;4988225;28;20670;-85
2022/03/18 10:37:50;;;;;;;11.53;5.70;;;14.20;99.90;;;;;;4987291;28;20226;-84
2022/03/18 10:40:31;;;;;;;10.40;5.53;;;13.90;99.90;;;;;;4992669;28;20262;-84
2022/03/18 10:43:01;;;;;;;11.80;5.90;;;13.70;99.90;;;;;;4997509;28;20246;-86
2022/03/18 10:45:28;;;;;;;11.97;5.83;;;13.60;99.90;;;;;;4989672;28;20262;-86
2022/03/18 10:48:13;;;;;;;16.50;6.73;;;13.70;99.90;;;;;;4994493;28;20805;-87
2022/03/18 10:50:41;;;;;;;9.47;5.87;;;13.90;99.90;;;;;;4995851;28;20204;-85
2022/03/18 10:53:11;;;;;;;11.67;5.70;;;13.90;99.90;;;;;;4995827;28;20660;-83
2022/03/18 10:55:43;;;;;;;14.20;6.40;;;14.00;99.90;;;;;;4982470;28;20253;-86
2022/03/18 10:58:12;;;;;;;17.27;6.23;;;14.00;99.90;;;;;;4986727;28;20231;-84
2022/03/18 11:00:43;;;;;;;11.90;5.70;;;14.10;99.90;;;;;;4989337;28;20274;-86
2022/03/18 11:03:11;;;;;;;13.23;5.60;;;14.30;99.90;;;;;;4986591;28;20203;-85
2022/03/18 11:05:45;;;;;;;9.13;5.30;;;14.10;99.90;;;;;;5006652;28;20567;-86
2022/03/18 11:08:24;;;;;;;10.50;5.80;;;14.20;99.90;;;;;;4989338;28;20227;-86
2022/03/18 11:11:14;;;;;;;11.63;5.60;;;14.30;99.90;;;;;;5002602;28;20210;-86
2022/03/18 11:13:53;;;;;;;12.33;6.17;;;14.40;99.90;;;;;;4987590;28;20200;-85
2022/03/18 11:16:25;;;;;;;14.57;5.93;;;14.50;99.90;;;;;;5001447;28;20226;-85
2022/03/18 11:18:53;;;;;;;10.67;5.00;;;14.60;99.90;;;;;;4983826;28;20207;-86
2022/03/18 11:21:21;;;;;;;11.73;5.20;;;14.80;99.90;;;;;;4988702;28;20203;-88
2022/03/18 11:23:51;;;;;;;8.90;5.10;;;14.90;99.90;;;;;;4980892;28;20243;-84
2022/03/18 11:26:19;;;;;;;10.97;5.73;;;14.90;99.90;;;;;;4984364;28;20196;-83
2022/03/18 11:29:04;;;;;;;10.97;5.73;;;15.00;99.90;;;;;;5000956;28;20646;-83
2022/03/18 11:31:31;;;;;;;9.10;5.10;;;15.10;99.90;;;;;;4984709;28;20242;-82
2022/03/18 11:34:15;;;;;;;9.63;5.87;;;15.20;99.90;;;;;;4986538;28;20302;-82
2022/03/18 11:37:04;;;;;;;11.30;5.67;;;15.30;99.90;;;;;;4984174;28;20211;-83
2022/03/18 11:39:31;;;;;;;10.43;5.50;;;15.40;99.90;;;;;;4984998;28;20250;-83
2022/03/18 11:42:05;;;;;;;11.33;5.40;;;15.40;99.90;;;;;;4996442;28;20294;-83
2022/03/18 11:44:52;;;;;;;11.77;5.67;;;15.60;99.90;;;;;;4979614;28;20223;-82
2022/03/18 11:47:31;;;;;;;11.80;5.10;;;15.80;99.90;;;;;;4985742;28;20504;-83
2022/03/18 11:50:42;;;;;;;9.37;4.87;;;15.90;99.90;;;;;;5001805;28;20203;-83
2022/03/18 11:53:12;;;;;;;7.80;4.83;;;16.10;99.90;;;;;;4983764;28;20205;-83
2022/03/18 11:55:43;;;;;;;12.40;5.00;;;16.20;99.90;;;;;;4980346;28;20249;-83
2022/03/18 11:58:28;;;;;;;10.93;5.23;;;16.20;99.90;;;;;;4986016;28;20693;-83
2022/03/18 12:00:55;;;;;;;9.53;6.00;;;16.30;99.90;;;;;;4983210;28;20211;-83
2022/03/18 12:03:28;;;;;;;9.07;5.07;;;16.40;99.90;;;;;;4993087;28;20671;-83
2022/03/18 12:05:58;;;;;;;10.00;4.83;;;16.50;99.90;;;;;;4989757;28;20199;-84
2022/03/18 12:08:51;;;;;;;9.27;4.23;;;16.60;99.90;;;;;;4988083;28;20654;-84
2022/03/18 12:11:35;;;;;;;8.50;4.73;;;16.70;99.90;;;;;;4988883;28;20295;-83
2022/03/18 12:14:06;;;;;;;8.80;4.53;;;16.80;99.90;;;;;;4981337;28;20207;-83
2022/03/18 12:16:32;;;;;;;8.33;4.27;;;16.80;99.90;;;;;;4981716;28;20638;-83
2022/03/18 12:19:19;;;;;;;9.23;5.17;;;16.90;99.90;;;;;;4986539;28;20214;-83
2022/03/18 12:21:47;;;;;;;11.75;5.38;;;17.00;99.90;;;;;;4987967;28;20298;-82
2022/03/18 12:24:13;;;;;;;8.17;4.47;;;17.10;99.90;;;;;;4990740;28;20239;-82
2022/03/18 12:26:53;;;;;;;9.18;4.13;;;17.30;99.90;;;;;;4990813;28;20254;-82
2022/03/18 12:29:28;;;;;;;13.77;4.72;;;17.30;99.90;;;;;;4998311;28;20239;-83
2022/03/18 12:32:04;;;;;;;8.98;4.60;;;17.30;99.90;;;;;;4984115;28;20234;-82
2022/03/18 12:34:33;;;;;;;9.32;4.70;;;17.40;99.90;;;;;;4982375;28;20307;-83
2022/03/18 12:37:01;;;;;;;11.75;5.00;;;17.40;99.90;;;;;;4984316;28;20506;-81
2022/03/18 12:39:28;;;;;;;10.77;4.65;;;17.40;99.90;;;;;;4985567;28;20207;-82
2022/03/18 12:42:09;;;;;;;10.38;4.80;;;17.60;99.90;;;;;;4985863;28;20199;-82
2022/03/18 12:44:35;;;;;;;12.57;5.47;;;17.70;99.90;;;;;;5003355;28;20230;-81
2022/03/18 12:47:05;;;;;;;8.77;4.53;;;17.90;99.90;;;;;;4984544;28;20318;-82
2022/03/18 12:49:35;;;;;;;9.60;5.35;;;17.90;99.90;;;;;;4986664;28;20207;-83
2022/03/18 12:52:10;;;;;;;11.13;4.07;;;18.00;99.90;;;;;;4987182;28;20240;-81
2022/03/18 12:54:38;;;;;;;12.05;4.30;;;17.90;99.90;;;;;;4985871;28;20214;-82
2022/03/18 12:57:08;;;;;;;13.93;4.47;;;17.60;99.90;;;;;;4986093;28;20322;-82
2022/03/18 12:59:38;;;;;;;6.40;3.70;;;17.70;99.90;;;;;;4984098;28;20202;-82
2022/03/18 13:02:25;;;;;;;7.53;4.03;;;17.80;99.90;;;;;;4984861;28;20207;-83
2022/03/18 13:04:59;;;;;;;9.25;4.43;;;18.00;99.90;;;;;;4983212;28;20214;-82
2022/03/18 13:07:27;;;;;;;7.97;4.10;;;18.20;99.90;;;;;;4983845;28;20331;-82
2022/03/18 13:09:59;;;;;;;4.80;3.22;;;18.10;99.90;;;;;;5000611;28;20270;-83
2022/03/18 13:12:31;;;;;;;5.28;3.35;;;18.00;99.90;;;;;;4983283;28;20594;-81
2022/03/18 13:14:58;;;;;;;6.25;4.38;;;18.20;99.90;;;;;;5000968;28;20211;-84
2022/03/18 13:17:36;;;;;;;8.70;3.53;;;18.40;99.90;;;;;;4986071;28;20233;-83
2022/03/18 13:20:04;;;;;;;7.82;3.60;;;18.50;99.90;;;;;;4999744;28;20297;-83
2022/03/18 13:22:30;;;;;;;9.85;3.70;;;18.60;99.90;;;;;;4986515;28;20270;-83
2022/03/18 13:25:00;;;;;;;10.57;3.45;;;18.70;99.70;;;;;;5001407;28;20207;-84
2022/03/18 13:27:28;;;;;;;7.60;3.53;;;18.80;99.40;;;;;;4985510;28;20746;-84
2022/03/18 13:32:50;;;;;;;10.50;3.40;;;18.60;98.50;;;;;;4981518;28;20294;-83
2022/03/18 13:35:27;;;;;;;8.63;4.10;;;18.40;98.80;;;;;;4979643;28;20229;-86
2022/03/18 13:38:17;;;;;;;6.35;3.78;;;18.30;98.50;;;;;;4987001;28;20314;-82
2022/03/18 13:41:00;;;;;;;7.60;4.03;;;18.00;98.10;;;;;;4988167;28;20318;-84
2022/03/18 13:43:35;;;;;;;7.05;3.95;;;17.90;98.80;;;;;;4985673;28;20199;-84
2022/03/18 13:46:12;;;;;;;7.07;3.88;;;17.90;98.80;;;;;;4984234;28;20226;-83
2022/03/18 13:48:40;;;;;;;8.50;3.53;;;18.00;98.60;;;;;;4982967;28;20211;-82
2022/03/18 13:51:10;;;;;;;8.38;4.18;;;18.10;99.00;;;;;;4985892;28;20210;-82
2022/03/18 13:54:11;;;;;;;9.05;4.55;;;18.10;98.70;;;;;;4943635;28;20679;-81
2022/03/18 13:56:41;;;;;;;9.63;4.80;;;17.90;98.60;;;;;;4943365;28;20210;-81
2022/03/18 13:59:18;;;;;;;10.52;5.32;;;17.70;98.70;;;;;;4946233;28;21327;-80
2022/03/18 14:02:01;;;;;;;7.13;4.80;;;17.60;98.90;;;;;;4941802;28;20636;-81
2022/03/18 14:04:44;;;;;;;10.27;4.70;;;17.60;98.80;;;;;;4942297;28;20804;-83
2022/03/18 14:07:12;;;;;;;7.93;4.55;;;17.60;99.20;;;;;;4933084;28;20295;-81
2022/03/18 14:09:53;;;;;;;8.45;4.93;;;17.60;99.60;;;;;;4945193;28;20692;-80
2022/03/18 14:12:19;;;;;;;9.60;5.25;;;17.70;99.90;;;;;;4943684;28;20204;-81
2022/03/18 14:14:47;;;;;;;7.85;4.47;;;17.70;99.90;;;;;;4939905;28;20233;-82
2022/03/18 14:17:15;;;;;;;9.73;5.18;;;17.70;99.90;;;;;;4944808;28;20239;-81
2022/03/18 14:20:08;;;;;;;8.35;4.60;;;17.80;99.90;;;;;;4941503;28;20299;-82
2022/03/18 14:22:42;;;;;;;7.70;4.05;;;18.00;99.90;;;;;;4943948;28;20205;-82